sensor_id;sensor_type;location;lat;lon;timestamp;P1;durP1;ratioP1;P2;durP2;ratioP2
38940;SDS011;43236;47.208;7.518;2023-09-30T00:01:02;17.92;;;7.00;;
38940;SDS011;43236;47.208;7.518;2023-09-30T00:03:50;14.77;;;7.32;;
38940;SDS011;43236;47.208;7.518;2023-09-30T00:06:39;13.88;;;7.03;;
38940;SDS011;43236;47.208;7.518;2023-09-30T00:09:26;9.02;;;5.13;;
38940;SDS011;43236;47.208;7.518;2023-09-30T00:12:13;15.43;;;7.05;;
38940;SDS011;43236;47.208;7.518;2023-09-30T00:15:00;10.48;;;6.85;;
38940;SDS011;43236;47.208;7.518;2023-09-30T00:17:47;11.65;;;6.82;;
38940;SDS011;43236;47.208;7.518;2023-09-30T00:20:35;14.88;;;7.28;;
38940;SDS011;43236;47.208;7.518;2023-09-30T00:23:22;21.42;;;6.85;;
38940;SDS011;43236;47.208;7.518;2023-09-30T00:26:09;10.20;;;5.63;;
38940;SDS011;43236;47.208;7.518;2023-09-30T00:28:56;13.38;;;6.68;;
38940;SDS011;43236;47.208;7.518;2023-09-30T00:31:43;10.65;;;5.72;;
38940;SDS011;43236;47.208;7.518;2023-09-30T00:34:32;16.67;;;7.30;;
38940;SDS011;43236;47.208;7.518;2023-09-30T00:37:21;13.65;;;6.72;;
38940;SDS011;43236;47.208;7.518;2023-09-30T00:40:09;18.60;;;7.43;;
38940;SDS011;43236;47.208;7.518;2023-09-30T00:42:57;9.13;;;6.00;;
38940;SDS011;43236;47.208;7.518;2023-09-30T00:45:44;16.65;;;5.82;;
38940;SDS011;43236;47.208;7.518;2023-09-30T00:48:32;12.88;;;6.70;;
38940;SDS011;43236;47.208;7.518;2023-09-30T00:51:20;12.07;;;6.07;;
38940;SDS011;43236;47.208;7.518;2023-09-30T00:54:09;14.60;;;7.43;;
38940;SDS011;43236;47.208;7.518;2023-09-30T00:56:56;11.90;;;6.93;;
38940;SDS011;43236;47.208;7.518;2023-09-30T00:59:46;13.88;;;6.72;;
38940;SDS011;43236;47.208;7.518;2023-09-30T01:02:35;13.48;;;6.20;;
38940;SDS011;43236;47.208;7.518;2023-09-30T01:05:23;10.27;;;6.05;;
38940;SDS011;43236;47.208;7.518;2023-09-30T01:08:10;10.50;;;6.45;;
38940;SDS011;43236;47.208;7.518;2023-09-30T01:10:59;15.98;;;6.80;;
38940;SDS011;43236;47.208;7.518;2023-09-30T01:13:46;10.57;;;6.38;;
38940;SDS011;43236;47.208;7.518;2023-09-30T01:16:35;15.57;;;7.30;;
38940;SDS011;43236;47.208;7.518;2023-09-30T01:19:22;14.55;;;7.80;;
38940;SDS011;43236;47.208;7.518;2023-09-30T01:22:11;13.80;;;7.55;;
38940;SDS011;43236;47.208;7.518;2023-09-30T01:24:59;10.57;;;6.03;;
38940;SDS011;43236;47.208;7.518;2023-09-30T01:27:46;12.57;;;5.38;;
38940;SDS011;43236;47.208;7.518;2023-09-30T01:30:33;17.05;;;6.70;;
38940;SDS011;43236;47.208;7.518;2023-09-30T01:33:20;13.45;;;5.93;;
38940;SDS011;43236;47.208;7.518;2023-09-30T01:36:08;12.18;;;5.07;;
38940;SDS011;43236;47.208;7.518;2023-09-30T01:38:56;11.40;;;5.25;;
38940;SDS011;43236;47.208;7.518;2023-09-30T01:41:44;11.25;;;5.43;;
38940;SDS011;43236;47.208;7.518;2023-09-30T01:44:31;16.67;;;7.50;;
38940;SDS011;43236;47.208;7.518;2023-09-30T01:47:18;13.20;;;6.00;;
38940;SDS011;43236;47.208;7.518;2023-09-30T01:50:06;13.07;;;7.00;;
38940;SDS011;43236;47.208;7.518;2023-09-30T01:52:53;14.18;;;6.68;;
38940;SDS011;43236;47.208;7.518;2023-09-30T01:55:41;14.77;;;8.25;;
38940;SDS011;43236;47.208;7.518;2023-09-30T01:58:30;11.30;;;5.38;;
38940;SDS011;43236;47.208;7.518;2023-09-30T02:01:17;12.32;;;6.15;;
38940;SDS011;43236;47.208;7.518;2023-09-30T02:04:05;12.75;;;6.65;;
38940;SDS011;43236;47.208;7.518;2023-09-30T02:06:52;12.57;;;6.95;;
38940;SDS011;43236;47.208;7.518;2023-09-30T02:09:39;10.70;;;5.57;;
38940;SDS011;43236;47.208;7.518;2023-09-30T02:12:28;10.38;;;6.88;;
38940;SDS011;43236;47.208;7.518;2023-09-30T02:15:15;14.15;;;6.97;;
38940;SDS011;43236;47.208;7.518;2023-09-30T02:18:02;12.63;;;5.43;;
38940;SDS011;43236;47.208;7.518;2023-09-30T02:20:50;11.93;;;6.30;;
38940;SDS011;43236;47.208;7.518;2023-09-30T02:23:38;13.15;;;5.80;;
38940;SDS011;43236;47.208;7.518;2023-09-30T02:26:25;9.73;;;5.97;;
38940;SDS011;43236;47.208;7.518;2023-09-30T02:29:15;15.52;;;6.88;;
38940;SDS011;43236;47.208;7.518;2023-09-30T02:32:02;14.35;;;6.65;;
38940;SDS011;43236;47.208;7.518;2023-09-30T02:34:50;13.15;;;6.63;;
38940;SDS011;43236;47.208;7.518;2023-09-30T02:37:37;15.18;;;6.97;;
38940;SDS011;43236;47.208;7.518;2023-09-30T02:40:25;14.57;;;6.20;;
38940;SDS011;43236;47.208;7.518;2023-09-30T02:43:12;11.07;;;6.18;;
38940;SDS011;43236;47.208;7.518;2023-09-30T02:46:01;8.88;;;5.55;;
38940;SDS011;43236;47.208;7.518;2023-09-30T02:48:48;8.15;;;6.20;;
38940;SDS011;43236;47.208;7.518;2023-09-30T02:51:35;12.30;;;5.75;;
38940;SDS011;43236;47.208;7.518;2023-09-30T02:54:22;15.02;;;4.93;;
38940;SDS011;43236;47.208;7.518;2023-09-30T02:57:09;9.93;;;5.70;;
38940;SDS011;43236;47.208;7.518;2023-09-30T02:59:56;11.15;;;6.22;;
38940;SDS011;43236;47.208;7.518;2023-09-30T03:02:46;12.25;;;6.53;;
38940;SDS011;43236;47.208;7.518;2023-09-30T03:05:33;12.07;;;6.47;;
38940;SDS011;43236;47.208;7.518;2023-09-30T03:08:20;15.68;;;7.22;;
38940;SDS011;43236;47.208;7.518;2023-09-30T03:11:10;11.43;;;6.13;;
38940;SDS011;43236;47.208;7.518;2023-09-30T03:13:58;15.20;;;6.07;;
38940;SDS011;43236;47.208;7.518;2023-09-30T03:16:45;16.25;;;6.63;;
38940;SDS011;43236;47.208;7.518;2023-09-30T03:19:33;9.90;;;5.50;;
38940;SDS011;43236;47.208;7.518;2023-09-30T03:22:20;15.30;;;6.30;;
38940;SDS011;43236;47.208;7.518;2023-09-30T03:25:08;10.00;;;5.32;;
38940;SDS011;43236;47.208;7.518;2023-09-30T03:27:57;17.85;;;5.50;;
38940;SDS011;43236;47.208;7.518;2023-09-30T03:30:44;10.52;;;5.25;;
38940;SDS011;43236;47.208;7.518;2023-09-30T03:33:31;11.93;;;5.80;;
38940;SDS011;43236;47.208;7.518;2023-09-30T03:36:20;14.07;;;6.25;;
38940;SDS011;43236;47.208;7.518;2023-09-30T03:39:09;13.88;;;5.88;;
38940;SDS011;43236;47.208;7.518;2023-09-30T03:42:00;9.98;;;6.05;;
38940;SDS011;43236;47.208;7.518;2023-09-30T03:44:48;10.82;;;5.32;;
38940;SDS011;43236;47.208;7.518;2023-09-30T03:47:36;12.07;;;5.63;;
38940;SDS011;43236;47.208;7.518;2023-09-30T03:50:24;13.23;;;5.68;;
38940;SDS011;43236;47.208;7.518;2023-09-30T03:53:12;11.50;;;6.53;;
38940;SDS011;43236;47.208;7.518;2023-09-30T03:56:00;12.77;;;6.28;;
38940;SDS011;43236;47.208;7.518;2023-09-30T03:58:48;10.35;;;5.85;;
38940;SDS011;43236;47.208;7.518;2023-09-30T04:01:35;9.52;;;5.13;;
38940;SDS011;43236;47.208;7.518;2023-09-30T04:04:25;11.20;;;5.78;;
38940;SDS011;43236;47.208;7.518;2023-09-30T04:07:12;10.23;;;4.93;;
38940;SDS011;43236;47.208;7.518;2023-09-30T04:10:01;11.10;;;5.75;;
38940;SDS011;43236;47.208;7.518;2023-09-30T04:12:48;13.30;;;5.85;;
38940;SDS011;43236;47.208;7.518;2023-09-30T04:15:35;12.50;;;7.32;;
38940;SDS011;43236;47.208;7.518;2023-09-30T04:18:22;14.32;;;6.55;;
38940;SDS011;43236;47.208;7.518;2023-09-30T04:21:11;10.25;;;5.18;;
38940;SDS011;43236;47.208;7.518;2023-09-30T04:23:58;9.85;;;4.43;;
38940;SDS011;43236;47.208;7.518;2023-09-30T04:26:46;12.90;;;5.38;;
38940;SDS011;43236;47.208;7.518;2023-09-30T04:29:35;13.73;;;7.13;;
38940;SDS011;43236;47.208;7.518;2023-09-30T04:32:23;14.73;;;5.22;;
38940;SDS011;43236;47.208;7.518;2023-09-30T04:35:11;13.07;;;5.65;;
38940;SDS011;43236;47.208;7.518;2023-09-30T04:37:58;13.27;;;5.63;;
38940;SDS011;43236;47.208;7.518;2023-09-30T04:40:46;13.63;;;6.13;;
38940;SDS011;43236;47.208;7.518;2023-09-30T04:43:38;9.68;;;4.50;;
38940;SDS011;43236;47.208;7.518;2023-09-30T04:46:25;12.98;;;5.13;;
38940;SDS011;43236;47.208;7.518;2023-09-30T04:49:13;13.75;;;4.70;;
38940;SDS011;43236;47.208;7.518;2023-09-30T04:52:01;8.63;;;4.78;;
38940;SDS011;43236;47.208;7.518;2023-09-30T04:54:48;8.30;;;4.07;;
38940;SDS011;43236;47.208;7.518;2023-09-30T04:57:35;9.50;;;4.75;;
38940;SDS011;43236;47.208;7.518;2023-09-30T05:00:23;8.95;;;4.25;;
38940;SDS011;43236;47.208;7.518;2023-09-30T05:03:11;10.75;;;6.05;;
38940;SDS011;43236;47.208;7.518;2023-09-30T05:05:58;11.60;;;4.82;;
38940;SDS011;43236;47.208;7.518;2023-09-30T05:08:45;12.05;;;3.95;;
38940;SDS011;43236;47.208;7.518;2023-09-30T05:11:33;9.05;;;4.63;;
38940;SDS011;43236;47.208;7.518;2023-09-30T05:14:20;14.77;;;4.90;;
38940;SDS011;43236;47.208;7.518;2023-09-30T05:17:08;7.68;;;4.28;;
38940;SDS011;43236;47.208;7.518;2023-09-30T05:19:56;7.90;;;4.60;;
38940;SDS011;43236;47.208;7.518;2023-09-30T05:22:43;12.63;;;4.72;;
38940;SDS011;43236;47.208;7.518;2023-09-30T05:25:31;14.13;;;5.10;;
38940;SDS011;43236;47.208;7.518;2023-09-30T05:28:19;12.57;;;5.32;;
38940;SDS011;43236;47.208;7.518;2023-09-30T05:31:06;9.80;;;4.88;;
38940;SDS011;43236;47.208;7.518;2023-09-30T05:33:55;10.70;;;4.93;;
38940;SDS011;43236;47.208;7.518;2023-09-30T05:36:42;14.70;;;5.30;;
38940;SDS011;43236;47.208;7.518;2023-09-30T05:39:29;8.90;;;4.97;;
38940;SDS011;43236;47.208;7.518;2023-09-30T05:42:17;10.82;;;4.72;;
38940;SDS011;43236;47.208;7.518;2023-09-30T05:45:05;12.00;;;5.22;;
38940;SDS011;43236;47.208;7.518;2023-09-30T05:47:54;9.15;;;5.40;;
38940;SDS011;43236;47.208;7.518;2023-09-30T05:50:45;12.13;;;5.22;;
38940;SDS011;43236;47.208;7.518;2023-09-30T05:53:32;11.10;;;4.70;;
38940;SDS011;43236;47.208;7.518;2023-09-30T05:56:21;8.93;;;5.53;;
38940;SDS011;43236;47.208;7.518;2023-09-30T05:59:08;7.38;;;4.50;;
38940;SDS011;43236;47.208;7.518;2023-09-30T06:01:56;11.50;;;5.10;;
38940;SDS011;43236;47.208;7.518;2023-09-30T06:04:43;10.02;;;4.18;;
38940;SDS011;43236;47.208;7.518;2023-09-30T06:07:32;11.48;;;4.60;;
38940;SDS011;43236;47.208;7.518;2023-09-30T06:10:20;10.70;;;4.38;;
38940;SDS011;43236;47.208;7.518;2023-09-30T06:13:07;10.65;;;6.50;;
38940;SDS011;43236;47.208;7.518;2023-09-30T06:15:54;7.55;;;4.22;;
38940;SDS011;43236;47.208;7.518;2023-09-30T06:18:41;10.20;;;4.50;;
38940;SDS011;43236;47.208;7.518;2023-09-30T06:21:30;11.80;;;6.15;;
38940;SDS011;43236;47.208;7.518;2023-09-30T06:24:21;12.73;;;5.47;;
38940;SDS011;43236;47.208;7.518;2023-09-30T06:27:09;6.40;;;4.68;;
38940;SDS011;43236;47.208;7.518;2023-09-30T06:29:58;15.68;;;5.10;;
38940;SDS011;43236;47.208;7.518;2023-09-30T06:32:45;8.60;;;3.67;;
38940;SDS011;43236;47.208;7.518;2023-09-30T06:35:32;10.07;;;4.60;;
38940;SDS011;43236;47.208;7.518;2023-09-30T06:38:23;11.88;;;5.10;;
38940;SDS011;43236;47.208;7.518;2023-09-30T06:41:16;11.52;;;4.78;;
38940;SDS011;43236;47.208;7.518;2023-09-30T06:44:03;12.73;;;5.63;;
38940;SDS011;43236;47.208;7.518;2023-09-30T06:46:51;11.82;;;4.93;;
38940;SDS011;43236;47.208;7.518;2023-09-30T06:49:40;7.78;;;4.13;;
38940;SDS011;43236;47.208;7.518;2023-09-30T06:52:27;9.10;;;4.65;;
38940;SDS011;43236;47.208;7.518;2023-09-30T06:55:14;8.82;;;5.20;;
38940;SDS011;43236;47.208;7.518;2023-09-30T06:58:03;9.88;;;4.68;;
38940;SDS011;43236;47.208;7.518;2023-09-30T07:00:52;10.40;;;5.60;;
38940;SDS011;43236;47.208;7.518;2023-09-30T07:03:39;10.18;;;4.43;;
38940;SDS011;43236;47.208;7.518;2023-09-30T07:06:27;6.97;;;4.78;;
38940;SDS011;43236;47.208;7.518;2023-09-30T07:09:15;10.23;;;4.88;;
38940;SDS011;43236;47.208;7.518;2023-09-30T07:12:05;8.15;;;5.05;;
38940;SDS011;43236;47.208;7.518;2023-09-30T07:14:54;10.30;;;6.07;;
38940;SDS011;43236;47.208;7.518;2023-09-30T07:17:41;10.07;;;4.82;;
38940;SDS011;43236;47.208;7.518;2023-09-30T07:20:28;12.23;;;5.05;;
38940;SDS011;43236;47.208;7.518;2023-09-30T07:23:19;13.38;;;4.80;;
38940;SDS011;43236;47.208;7.518;2023-09-30T07:26:06;9.75;;;4.80;;
38940;SDS011;43236;47.208;7.518;2023-09-30T07:28:53;12.45;;;3.90;;
38940;SDS011;43236;47.208;7.518;2023-09-30T07:31:43;10.57;;;4.47;;
38940;SDS011;43236;47.208;7.518;2023-09-30T07:34:30;6.25;;;3.42;;
38940;SDS011;43236;47.208;7.518;2023-09-30T07:37:18;11.50;;;4.65;;
38940;SDS011;43236;47.208;7.518;2023-09-30T07:40:06;8.30;;;4.35;;
38940;SDS011;43236;47.208;7.518;2023-09-30T07:42:55;9.90;;;4.18;;
38940;SDS011;43236;47.208;7.518;2023-09-30T07:45:43;8.02;;;4.30;;
38940;SDS011;43236;47.208;7.518;2023-09-30T07:48:31;7.35;;;3.65;;
38940;SDS011;43236;47.208;7.518;2023-09-30T07:51:18;7.78;;;4.80;;
38940;SDS011;43236;47.208;7.518;2023-09-30T07:54:05;8.27;;;4.28;;
38940;SDS011;43236;47.208;7.518;2023-09-30T07:56:53;9.52;;;4.18;;
38940;SDS011;43236;47.208;7.518;2023-09-30T07:59:41;8.10;;;4.25;;
38940;SDS011;43236;47.208;7.518;2023-09-30T08:02:28;8.60;;;4.45;;
38940;SDS011;43236;47.208;7.518;2023-09-30T08:05:20;7.53;;;4.20;;
38940;SDS011;43236;47.208;7.518;2023-09-30T08:08:07;9.30;;;4.35;;
38940;SDS011;43236;47.208;7.518;2023-09-30T08:10:54;9.23;;;4.35;;
38940;SDS011;43236;47.208;7.518;2023-09-30T08:13:41;6.88;;;3.60;;
38940;SDS011;43236;47.208;7.518;2023-09-30T08:16:28;11.30;;;4.40;;
38940;SDS011;43236;47.208;7.518;2023-09-30T08:19:15;10.65;;;4.00;;
38940;SDS011;43236;47.208;7.518;2023-09-30T08:22:04;5.78;;;3.67;;
38940;SDS011;43236;47.208;7.518;2023-09-30T08:24:52;8.20;;;3.75;;
38940;SDS011;43236;47.208;7.518;2023-09-30T08:27:39;8.05;;;3.65;;
38940;SDS011;43236;47.208;7.518;2023-09-30T08:30:27;8.82;;;3.83;;
38940;SDS011;43236;47.208;7.518;2023-09-30T08:33:14;7.15;;;3.55;;
38940;SDS011;43236;47.208;7.518;2023-09-30T08:36:01;6.00;;;3.72;;
38940;SDS011;43236;47.208;7.518;2023-09-30T08:38:53;8.43;;;3.83;;
38940;SDS011;43236;47.208;7.518;2023-09-30T08:41:40;6.93;;;4.35;;
38940;SDS011;43236;47.208;7.518;2023-09-30T08:44:29;5.28;;;2.85;;
38940;SDS011;43236;47.208;7.518;2023-09-30T08:47:17;12.20;;;4.15;;
38940;SDS011;43236;47.208;7.518;2023-09-30T08:50:05;6.47;;;2.78;;
38940;SDS011;43236;47.208;7.518;2023-09-30T08:52:55;7.95;;;3.60;;
38940;SDS011;43236;47.208;7.518;2023-09-30T08:55:44;5.80;;;3.72;;
38940;SDS011;43236;47.208;7.518;2023-09-30T08:58:33;8.45;;;3.75;;
38940;SDS011;43236;47.208;7.518;2023-09-30T09:01:20;6.40;;;3.50;;
38940;SDS011;43236;47.208;7.518;2023-09-30T09:04:07;8.70;;;3.78;;
38940;SDS011;43236;47.208;7.518;2023-09-30T09:06:54;7.07;;;3.92;;
38940;SDS011;43236;47.208;7.518;2023-09-30T09:09:42;7.95;;;3.75;;
38940;SDS011;43236;47.208;7.518;2023-09-30T09:12:56;11.68;;;3.28;;
38940;SDS011;43236;47.208;7.518;2023-09-30T09:15:44;7.60;;;4.10;;
38940;SDS011;43236;47.208;7.518;2023-09-30T09:18:31;12.35;;;4.50;;
38940;SDS011;43236;47.208;7.518;2023-09-30T09:21:19;7.22;;;3.45;;
38940;SDS011;43236;47.208;7.518;2023-09-30T09:24:08;8.85;;;3.17;;
38940;SDS011;43236;47.208;7.518;2023-09-30T09:27:03;7.63;;;4.72;;
38940;SDS011;43236;47.208;7.518;2023-09-30T09:29:53;7.97;;;3.53;;
38940;SDS011;43236;47.208;7.518;2023-09-30T09:32:51;11.18;;;4.30;;
38940;SDS011;43236;47.208;7.518;2023-09-30T09:35:44;7.23;;;3.17;;
38940;SDS011;43236;47.208;7.518;2023-09-30T09:38:43;9.82;;;4.95;;
38940;SDS011;43236;47.208;7.518;2023-09-30T09:41:30;10.15;;;4.13;;
38940;SDS011;43236;47.208;7.518;2023-09-30T09:44:18;8.05;;;4.30;;
38940;SDS011;43236;47.208;7.518;2023-09-30T09:47:08;12.13;;;4.50;;
38940;SDS011;43236;47.208;7.518;2023-09-30T09:49:57;10.15;;;4.43;;
38940;SDS011;43236;47.208;7.518;2023-09-30T09:52:45;8.02;;;4.25;;
38940;SDS011;43236;47.208;7.518;2023-09-30T09:55:35;9.65;;;3.70;;
38940;SDS011;43236;47.208;7.518;2023-09-30T09:58:24;8.40;;;4.03;;
38940;SDS011;43236;47.208;7.518;2023-09-30T10:01:12;9.80;;;4.05;;
38940;SDS011;43236;47.208;7.518;2023-09-30T10:04:01;10.85;;;5.07;;
38940;SDS011;43236;47.208;7.518;2023-09-30T10:06:50;5.55;;;3.50;;
38940;SDS011;43236;47.208;7.518;2023-09-30T10:09:41;7.05;;;3.40;;
38940;SDS011;43236;47.208;7.518;2023-09-30T10:12:35;9.23;;;3.78;;
38940;SDS011;43236;47.208;7.518;2023-09-30T10:15:39;7.97;;;3.53;;
38940;SDS011;43236;47.208;7.518;2023-09-30T10:18:26;9.15;;;3.60;;
38940;SDS011;43236;47.208;7.518;2023-09-30T10:21:16;5.30;;;3.25;;
38940;SDS011;43236;47.208;7.518;2023-09-30T10:27:27;9.93;;;4.32;;
38940;SDS011;43236;47.208;7.518;2023-09-30T10:30:17;11.40;;;4.85;;
38940;SDS011;43236;47.208;7.518;2023-09-30T10:33:07;7.78;;;3.42;;
38940;SDS011;43236;47.208;7.518;2023-09-30T10:35:57;8.80;;;3.97;;
38940;SDS011;43236;47.208;7.518;2023-09-30T10:38:49;9.45;;;4.30;;
38940;SDS011;43236;47.208;7.518;2023-09-30T10:44:44;9.27;;;4.13;;
38940;SDS011;43236;47.208;7.518;2023-09-30T10:47:34;6.05;;;3.90;;
38940;SDS011;43236;47.208;7.518;2023-09-30T10:53:39;14.00;;;3.38;;
38940;SDS011;43236;47.208;7.518;2023-09-30T10:56:32;10.95;;;3.80;;
38940;SDS011;43236;47.208;7.518;2023-09-30T10:59:20;5.50;;;2.92;;
38940;SDS011;43236;47.208;7.518;2023-09-30T11:02:17;8.77;;;3.70;;
38940;SDS011;43236;47.208;7.518;2023-09-30T11:05:09;8.90;;;4.15;;
38940;SDS011;43236;47.208;7.518;2023-09-30T11:07:56;6.53;;;2.95;;
38940;SDS011;43236;47.208;7.518;2023-09-30T11:10:48;11.73;;;4.47;;
38940;SDS011;43236;47.208;7.518;2023-09-30T11:13:38;5.78;;;2.95;;
38940;SDS011;43236;47.208;7.518;2023-09-30T11:16:25;9.32;;;4.07;;
38940;SDS011;43236;47.208;7.518;2023-09-30T11:19:13;10.63;;;4.90;;
38940;SDS011;43236;47.208;7.518;2023-09-30T11:22:00;5.53;;;2.88;;
38940;SDS011;43236;47.208;7.518;2023-09-30T11:24:48;9.85;;;3.35;;
38940;SDS011;43236;47.208;7.518;2023-09-30T11:27:35;7.97;;;4.05;;
38940;SDS011;43236;47.208;7.518;2023-09-30T11:30:23;10.73;;;3.95;;
38940;SDS011;43236;47.208;7.518;2023-09-30T11:33:12;8.73;;;4.00;;
38940;SDS011;43236;47.208;7.518;2023-09-30T11:36:00;10.00;;;4.05;;
38940;SDS011;43236;47.208;7.518;2023-09-30T11:38:50;9.60;;;3.78;;
38940;SDS011;43236;47.208;7.518;2023-09-30T11:41:39;7.35;;;3.92;;
38940;SDS011;43236;47.208;7.518;2023-09-30T11:44:26;8.75;;;4.45;;
38940;SDS011;43236;47.208;7.518;2023-09-30T11:47:17;5.90;;;3.80;;
38940;SDS011;43236;47.208;7.518;2023-09-30T11:50:16;11.98;;;4.38;;
38940;SDS011;43236;47.208;7.518;2023-09-30T11:53:03;7.40;;;3.40;;
38940;SDS011;43236;47.208;7.518;2023-09-30T11:55:51;8.80;;;4.03;;
38940;SDS011;43236;47.208;7.518;2023-09-30T11:58:40;8.65;;;3.83;;
38940;SDS011;43236;47.208;7.518;2023-09-30T12:01:27;6.57;;;2.90;;
38940;SDS011;43236;47.208;7.518;2023-09-30T12:04:17;5.75;;;3.35;;
38940;SDS011;43236;47.208;7.518;2023-09-30T12:07:04;6.43;;;3.08;;
38940;SDS011;43236;47.208;7.518;2023-09-30T12:09:53;4.45;;;3.25;;
38940;SDS011;43236;47.208;7.518;2023-09-30T12:12:40;7.18;;;3.40;;
38940;SDS011;43236;47.208;7.518;2023-09-30T12:15:27;8.32;;;3.97;;
38940;SDS011;43236;47.208;7.518;2023-09-30T12:18:14;8.95;;;3.88;;
38940;SDS011;43236;47.208;7.518;2023-09-30T12:21:05;9.02;;;3.78;;
38940;SDS011;43236;47.208;7.518;2023-09-30T12:23:53;6.68;;;4.18;;
38940;SDS011;43236;47.208;7.518;2023-09-30T12:26:40;9.35;;;3.97;;
38940;SDS011;43236;47.208;7.518;2023-09-30T12:29:27;10.43;;;4.72;;
38940;SDS011;43236;47.208;7.518;2023-09-30T12:32:14;5.47;;;3.72;;
38940;SDS011;43236;47.208;7.518;2023-09-30T12:35:01;7.93;;;4.25;;
38940;SDS011;43236;47.208;7.518;2023-09-30T12:37:51;7.88;;;4.05;;
38940;SDS011;43236;47.208;7.518;2023-09-30T12:40:38;7.70;;;3.55;;
38940;SDS011;43236;47.208;7.518;2023-09-30T12:43:25;9.32;;;4.22;;
38940;SDS011;43236;47.208;7.518;2023-09-30T12:46:12;9.85;;;4.55;;
38940;SDS011;43236;47.208;7.518;2023-09-30T12:48:59;8.95;;;3.88;;
38940;SDS011;43236;47.208;7.518;2023-09-30T12:51:47;9.25;;;4.05;;
38940;SDS011;43236;47.208;7.518;2023-09-30T12:54:36;6.63;;;3.45;;
38940;SDS011;43236;47.208;7.518;2023-09-30T12:57:23;7.40;;;3.20;;
38940;SDS011;43236;47.208;7.518;2023-09-30T13:00:10;8.98;;;4.65;;
38940;SDS011;43236;47.208;7.518;2023-09-30T13:02:57;10.57;;;4.43;;
38940;SDS011;43236;47.208;7.518;2023-09-30T13:05:45;6.43;;;3.00;;
38940;SDS011;43236;47.208;7.518;2023-09-30T13:08:32;7.53;;;3.83;;
38940;SDS011;43236;47.208;7.518;2023-09-30T13:11:21;9.05;;;4.90;;
38940;SDS011;43236;47.208;7.518;2023-09-30T13:14:08;7.55;;;3.38;;
38940;SDS011;43236;47.208;7.518;2023-09-30T13:16:56;9.10;;;4.85;;
38940;SDS011;43236;47.208;7.518;2023-09-30T13:19:43;7.38;;;4.07;;
38940;SDS011;43236;47.208;7.518;2023-09-30T13:22:30;8.23;;;3.97;;
38940;SDS011;43236;47.208;7.518;2023-09-30T13:25:17;7.03;;;3.97;;
38940;SDS011;43236;47.208;7.518;2023-09-30T13:28:06;5.85;;;3.25;;
38940;SDS011;43236;47.208;7.518;2023-09-30T13:30:53;9.18;;;4.35;;
38940;SDS011;43236;47.208;7.518;2023-09-30T13:33:40;8.05;;;3.90;;
38940;SDS011;43236;47.208;7.518;2023-09-30T13:36:27;6.38;;;3.38;;
38940;SDS011;43236;47.208;7.518;2023-09-30T13:39:15;8.82;;;3.95;;
38940;SDS011;43236;47.208;7.518;2023-09-30T13:42:03;8.77;;;3.90;;
38940;SDS011;43236;47.208;7.518;2023-09-30T13:44:53;7.05;;;4.32;;
38940;SDS011;43236;47.208;7.518;2023-09-30T13:47:42;10.35;;;4.72;;
38940;SDS011;43236;47.208;7.518;2023-09-30T13:50:30;6.38;;;3.72;;
38940;SDS011;43236;47.208;7.518;2023-09-30T13:53:17;8.05;;;4.28;;
38940;SDS011;43236;47.208;7.518;2023-09-30T13:56:04;12.02;;;3.78;;
38940;SDS011;43236;47.208;7.518;2023-09-30T13:58:53;7.45;;;4.05;;
38940;SDS011;43236;47.208;7.518;2023-09-30T14:01:44;11.60;;;5.38;;
38940;SDS011;43236;47.208;7.518;2023-09-30T14:04:31;8.02;;;4.45;;
38940;SDS011;43236;47.208;7.518;2023-09-30T14:07:20;10.23;;;4.53;;
38940;SDS011;43236;47.208;7.518;2023-09-30T14:10:08;7.30;;;4.00;;
38940;SDS011;43236;47.208;7.518;2023-09-30T14:12:56;7.82;;;3.17;;
38940;SDS011;43236;47.208;7.518;2023-09-30T14:15:43;10.20;;;4.57;;
38940;SDS011;43236;47.208;7.518;2023-09-30T14:18:33;11.25;;;4.60;;
38940;SDS011;43236;47.208;7.518;2023-09-30T14:21:21;5.47;;;4.05;;
38940;SDS011;43236;47.208;7.518;2023-09-30T14:24:08;10.77;;;4.28;;
38940;SDS011;43236;47.208;7.518;2023-09-30T14:26:56;7.32;;;4.45;;
38940;SDS011;43236;47.208;7.518;2023-09-30T14:29:44;15.10;;;5.47;;
38940;SDS011;43236;47.208;7.518;2023-09-30T14:32:31;10.80;;;3.95;;
38940;SDS011;43236;47.208;7.518;2023-09-30T14:35:19;7.78;;;4.20;;
38940;SDS011;43236;47.208;7.518;2023-09-30T14:38:06;8.57;;;5.55;;
38940;SDS011;43236;47.208;7.518;2023-09-30T14:40:54;7.70;;;4.07;;
38940;SDS011;43236;47.208;7.518;2023-09-30T14:43:41;11.35;;;5.45;;
38940;SDS011;43236;47.208;7.518;2023-09-30T14:46:28;7.22;;;4.20;;
38940;SDS011;43236;47.208;7.518;2023-09-30T14:49:15;5.32;;;3.30;;
38940;SDS011;43236;47.208;7.518;2023-09-30T14:52:03;7.30;;;3.47;;
38940;SDS011;43236;47.208;7.518;2023-09-30T14:54:50;5.53;;;3.67;;
38940;SDS011;43236;47.208;7.518;2023-09-30T14:57:37;9.57;;;4.13;;
38940;SDS011;43236;47.208;7.518;2023-09-30T15:00:25;7.07;;;4.10;;
38940;SDS011;43236;47.208;7.518;2023-09-30T15:03:12;9.02;;;4.45;;
38940;SDS011;43236;47.208;7.518;2023-09-30T15:05:59;5.35;;;3.90;;
38940;SDS011;43236;47.208;7.518;2023-09-30T15:08:48;6.78;;;2.80;;
38940;SDS011;43236;47.208;7.518;2023-09-30T15:11:35;11.27;;;3.20;;
38940;SDS011;43236;47.208;7.518;2023-09-30T15:14:22;4.05;;;2.67;;
38940;SDS011;43236;47.208;7.518;2023-09-30T15:17:09;6.85;;;3.75;;
38940;SDS011;43236;47.208;7.518;2023-09-30T15:19:57;6.82;;;3.72;;
38940;SDS011;43236;47.208;7.518;2023-09-30T15:22:44;7.55;;;3.38;;
38940;SDS011;43236;47.208;7.518;2023-09-30T15:25:33;6.82;;;3.50;;
38940;SDS011;43236;47.208;7.518;2023-09-30T15:28:20;8.40;;;3.90;;
38940;SDS011;43236;47.208;7.518;2023-09-30T15:31:07;9.93;;;4.40;;
38940;SDS011;43236;47.208;7.518;2023-09-30T15:33:54;5.90;;;3.50;;
38940;SDS011;43236;47.208;7.518;2023-09-30T15:36:41;7.90;;;4.05;;
38940;SDS011;43236;47.208;7.518;2023-09-30T15:39:30;6.10;;;3.63;;
38940;SDS011;43236;47.208;7.518;2023-09-30T15:42:25;8.98;;;3.42;;
38940;SDS011;43236;47.208;7.518;2023-09-30T15:45:12;10.05;;;3.75;;
38940;SDS011;43236;47.208;7.518;2023-09-30T15:47:59;6.13;;;3.75;;
38940;SDS011;43236;47.208;7.518;2023-09-30T15:50:47;8.82;;;3.85;;
38940;SDS011;43236;47.208;7.518;2023-09-30T15:53:34;6.65;;;3.63;;
38940;SDS011;43236;47.208;7.518;2023-09-30T15:56:21;8.85;;;4.70;;
38940;SDS011;43236;47.208;7.518;2023-09-30T15:59:09;9.90;;;4.90;;
38940;SDS011;43236;47.208;7.518;2023-09-30T16:01:57;10.88;;;3.05;;
38940;SDS011;43236;47.208;7.518;2023-09-30T16:04:44;9.27;;;4.25;;
38940;SDS011;43236;47.208;7.518;2023-09-30T16:07:31;8.70;;;3.78;;
38940;SDS011;43236;47.208;7.518;2023-09-30T16:10:18;6.78;;;3.90;;
38940;SDS011;43236;47.208;7.518;2023-09-30T16:13:06;7.15;;;3.80;;
38940;SDS011;43236;47.208;7.518;2023-09-30T16:15:55;4.80;;;3.08;;
38940;SDS011;43236;47.208;7.518;2023-09-30T16:18:42;10.13;;;3.75;;
38940;SDS011;43236;47.208;7.518;2023-09-30T16:21:29;9.05;;;3.80;;
38940;SDS011;43236;47.208;7.518;2023-09-30T16:24:16;5.28;;;3.17;;
38940;SDS011;43236;47.208;7.518;2023-09-30T16:27:03;10.63;;;4.03;;
38940;SDS011;43236;47.208;7.518;2023-09-30T16:29:51;8.90;;;4.07;;
38940;SDS011;43236;47.208;7.518;2023-09-30T16:32:39;7.68;;;3.50;;
38940;SDS011;43236;47.208;7.518;2023-09-30T16:35:26;9.10;;;4.18;;
38940;SDS011;43236;47.208;7.518;2023-09-30T16:38:13;9.32;;;4.57;;
38940;SDS011;43236;47.208;7.518;2023-09-30T16:41:00;6.63;;;3.35;;
38940;SDS011;43236;47.208;7.518;2023-09-30T16:43:47;8.48;;;3.85;;
38940;SDS011;43236;47.208;7.518;2023-09-30T16:46:34;7.57;;;3.80;;
38940;SDS011;43236;47.208;7.518;2023-09-30T16:49:23;6.00;;;3.42;;
38940;SDS011;43236;47.208;7.518;2023-09-30T16:52:10;9.18;;;4.22;;
38940;SDS011;43236;47.208;7.518;2023-09-30T16:54:57;9.20;;;3.53;;